createdAt,value
2017-09-29T00:03:32.807Z,44.30
2017-09-29T00:08:35.386Z,40.93
2017-09-29T00:13:37.963Z,39.20
2017-09-29T00:18:40.557Z,41.47
2017-09-29T00:23:43.899Z,49.10
2017-09-29T00:28:46.488Z,43.87
2017-09-29T00:33:49.060Z,39.83
2017-09-29T00:38:51.635Z,40.30
2017-09-29T00:43:54.237Z,36.97
2017-09-29T00:48:56.800Z,43.73
2017-09-29T00:53:59.378Z,38.40
2017-09-29T00:59:01.947Z,40.70
2017-09-29T01:04:04.540Z,40.60
2017-09-29T01:09:07.088Z,37.07
2017-09-29T01:14:09.656Z,35.40
2017-09-29T01:19:12.214Z,34.00
2017-09-29T01:24:14.812Z,34.90
2017-09-29T01:29:18.163Z,35.40
2017-09-29T01:34:20.744Z,36.77
2017-09-29T01:39:23.325Z,35.97
2017-09-29T01:44:25.883Z,37.17
2017-09-29T01:49:28.458Z,35.67
2017-09-29T01:54:31.027Z,34.93
2017-09-29T01:59:33.583Z,34.73
2017-09-29T02:04:36.933Z,34.50
2017-09-29T02:09:39.495Z,31.00
2017-09-29T02:14:42.055Z,29.80
2017-09-29T02:19:44.626Z,31.57
2017-09-29T02:24:47.199Z,36.10
2017-09-29T02:29:50.535Z,35.03
2017-09-29T02:34:53.103Z,32.50
2017-09-29T02:39:55.663Z,36.83
2017-09-29T02:44:58.232Z,31.87
2017-09-29T02:50:00.799Z,36.43
2017-09-29T02:55:03.355Z,32.80
2017-09-29T03:00:06.493Z,41.30
2017-09-29T03:05:10.663Z,32.20
2017-09-29T03:10:13.220Z,32.07
2017-09-29T03:15:15.789Z,32.03
2017-09-29T03:20:18.398Z,35.17
2017-09-29T03:25:20.964Z,35.73
2017-09-29T03:30:23.512Z,28.70
2017-09-29T03:35:26.082Z,26.63
2017-09-29T03:40:28.645Z,28.00
2017-09-29T03:45:31.210Z,28.60
2017-09-29T03:50:35.847Z,30.37
2017-09-29T03:55:38.851Z,33.70
2017-09-29T04:00:41.415Z,32.83
2017-09-29T04:05:43.981Z,32.80
2017-09-29T04:10:46.556Z,33.50
2017-09-29T04:15:49.142Z,40.50
2017-09-29T04:20:51.727Z,26.57
2017-09-29T04:25:54.303Z,27.60
2017-09-29T04:30:56.867Z,27.07
2017-09-29T04:35:59.470Z,29.07
2017-09-29T04:41:02.108Z,25.77
2017-09-29T04:46:04.673Z,23.83
2017-09-29T04:51:08.034Z,26.70
2017-09-29T04:56:10.613Z,30.70
2017-09-29T05:01:13.191Z,33.30
2017-09-29T05:06:16.550Z,31.40
2017-09-29T05:11:19.151Z,38.30
2017-09-29T05:16:21.739Z,33.13
2017-09-29T05:21:24.318Z,32.47
2017-09-29T05:26:26.890Z,29.93
2017-09-29T05:31:29.459Z,27.87
2017-09-29T05:36:32.048Z,24.90
2017-09-29T05:41:34.654Z,26.40
2017-09-29T05:46:37.248Z,32.40
2017-09-29T05:51:39.895Z,29.20
2017-09-29T05:56:42.538Z,34.50
2017-09-29T06:01:45.116Z,35.00
2017-09-29T06:06:47.708Z,39.03
2017-09-29T06:11:50.323Z,33.00
2017-09-29T06:16:52.912Z,33.90
2017-09-29T06:21:55.539Z,37.13
2017-09-29T06:26:58.157Z,34.33
2017-09-29T06:32:01.477Z,33.43
2017-09-29T06:37:04.045Z,29.90
2017-09-29T06:42:06.621Z,38.03
2017-09-29T06:47:09.232Z,38.67
2017-09-29T06:52:11.831Z,30.23
2017-09-29T06:57:14.531Z,35.73
2017-09-29T07:02:17.171Z,32.10
2017-09-29T07:07:19.775Z,41.17
2017-09-29T07:12:22.367Z,44.60
2017-09-29T07:17:24.940Z,40.97
2017-09-29T07:22:27.545Z,48.03
2017-09-29T07:27:33.127Z,54.03
2017-09-29T07:32:35.790Z,35.77
2017-09-29T07:37:38.411Z,47.00
2017-09-29T07:42:41.075Z,35.63
2017-09-29T07:47:43.634Z,37.77
2017-09-29T07:52:46.832Z,33.80
2017-09-29T07:57:49.463Z,26.27
2017-09-29T08:02:52.073Z,30.00
2017-09-29T08:07:54.682Z,36.60
2017-09-29T08:12:57.263Z,30.30
2017-09-29T08:17:59.826Z,30.10
2017-09-29T08:23:02.419Z,32.90
2017-09-29T08:28:05.045Z,28.90
2017-09-29T08:33:07.664Z,27.10
2017-09-29T08:38:10.239Z,33.53
2017-09-29T08:43:12.821Z,26.43
2017-09-29T08:48:15.396Z,30.60
2017-09-29T08:53:18.011Z,23.97
2017-09-29T08:58:20.618Z,27.13
2017-09-29T09:03:23.215Z,30.20
2017-09-29T09:08:25.791Z,35.57
2017-09-29T09:13:28.374Z,49.43
2017-09-29T09:18:30.995Z,27.83
2017-09-29T09:23:34.356Z,35.50
2017-09-29T09:28:36.944Z,28.50
2017-09-29T09:33:39.515Z,34.17
2017-09-29T09:38:42.204Z,31.30
2017-09-29T09:43:44.777Z,30.63
2017-09-29T09:48:47.370Z,30.40
2017-09-29T09:53:49.959Z,26.97
2017-09-29T09:58:52.546Z,26.33
2017-09-29T10:03:55.160Z,20.93
2017-09-29T10:08:57.849Z,29.30
2017-09-29T10:14:00.494Z,28.73
2017-09-29T10:19:03.169Z,25.80
2017-09-29T10:24:05.922Z,34.90
2017-09-29T10:29:08.568Z,28.07
2017-09-29T10:34:11.166Z,22.30
2017-09-29T10:39:13.773Z,28.53
2017-09-29T10:44:16.435Z,33.33
2017-09-29T10:49:19.039Z,27.87
2017-09-29T10:54:21.819Z,27.13
2017-09-29T10:59:24.359Z,26.40
2017-09-29T11:04:26.936Z,30.53
2017-09-29T11:09:29.565Z,21.40
2017-09-29T11:14:32.122Z,27.40
2017-09-29T11:19:34.679Z,25.30
2017-09-29T11:24:38.043Z,26.50
2017-09-29T11:29:40.657Z,26.27
2017-09-29T11:34:43.307Z,27.10
2017-09-29T11:39:45.894Z,27.00
2017-09-29T11:44:48.534Z,29.13
2017-09-29T11:49:51.142Z,25.03
2017-09-29T11:54:53.707Z,25.03
2017-09-29T11:59:56.284Z,28.90
2017-09-29T12:04:58.853Z,30.90
2017-09-29T12:10:01.444Z,26.20
2017-09-29T12:15:04.064Z,26.17
2017-09-29T12:20:06.660Z,27.10
2017-09-29T12:25:09.277Z,23.30
2017-09-29T12:30:11.863Z,32.57
2017-09-29T12:35:14.608Z,24.83
2017-09-29T12:40:17.190Z,19.97
2017-09-29T12:45:19.776Z,21.70
2017-09-29T12:50:22.390Z,22.03
2017-09-29T12:55:24.970Z,15.47
2017-09-29T13:00:27.564Z,25.73
2017-09-29T13:05:30.150Z,22.93
2017-09-29T13:10:32.747Z,23.67
2017-09-29T13:15:35.319Z,16.80
2017-09-29T13:20:38.089Z,22.80
2017-09-29T13:25:40.682Z,18.80
2017-09-29T13:30:43.274Z,32.00
2017-09-29T13:35:46.197Z,30.47
2017-09-29T13:40:48.708Z,18.10
2017-09-29T13:45:51.331Z,24.97
2017-09-29T13:50:53.908Z,27.40
2017-09-29T13:55:57.467Z,23.77
2017-09-29T14:01:00.057Z,24.80
2017-09-29T14:06:02.620Z,26.93
2017-09-29T14:11:05.201Z,27.57
2017-09-29T14:16:07.769Z,24.70
2017-09-29T14:21:10.412Z,32.30
2017-09-29T14:26:12.997Z,25.10
2017-09-29T14:31:15.577Z,24.43
2017-09-29T14:36:18.220Z,23.97
2017-09-29T14:41:20.849Z,22.03
2017-09-29T14:46:24.228Z,20.07
2017-09-29T14:51:26.803Z,21.60
2017-09-29T14:56:29.456Z,22.73
2017-09-29T15:01:32.072Z,21.27
2017-09-29T15:06:34.667Z,29.27
2017-09-29T15:11:37.303Z,24.83
2017-09-29T15:16:39.899Z,30.03
2017-09-29T15:21:42.495Z,25.37
2017-09-29T15:26:45.093Z,24.07
2017-09-29T15:31:47.714Z,16.20
2017-09-29T15:36:50.376Z,20.10
2017-09-29T15:41:53.750Z,18.43
2017-09-29T15:46:56.344Z,19.73
2017-09-29T15:51:59.723Z,19.47
2017-09-29T15:57:02.410Z,24.33
2017-09-29T16:02:05.003Z,21.03
2017-09-29T16:07:07.554Z,19.60
2017-09-29T16:12:10.139Z,22.13
2017-09-29T16:17:12.709Z,21.30
2017-09-29T16:22:15.283Z,19.07
2017-09-29T16:27:17.879Z,19.57
2017-09-29T16:32:20.516Z,27.73
2017-09-29T16:37:23.870Z,27.90
2017-09-29T16:42:26.463Z,24.23
2017-09-29T16:47:29.101Z,21.53
2017-09-29T16:52:31.663Z,17.53
2017-09-29T16:57:34.245Z,16.10
2017-09-29T17:02:36.812Z,16.80
2017-09-29T17:07:39.788Z,25.90
2017-09-29T17:12:42.390Z,21.77
2017-09-29T17:17:45.109Z,18.67
2017-09-29T17:22:48.723Z,28.23
2017-09-29T17:27:51.293Z,38.80
2017-09-29T17:32:53.851Z,42.17
2017-09-29T17:37:56.476Z,21.90
2017-09-29T17:42:59.089Z,28.47
2017-09-29T17:48:02.059Z,21.63
2017-09-29T17:53:04.659Z,19.50
2017-09-29T17:58:07.360Z,19.73
2017-09-29T18:03:09.931Z,28.07
2017-09-29T18:08:12.828Z,18.30
2017-09-29T18:13:15.395Z,24.70
2017-09-29T18:18:17.983Z,15.47
2017-09-29T18:23:20.549Z,25.77
2017-09-29T18:28:23.124Z,20.43
2017-09-29T18:33:25.700Z,16.93
2017-09-29T18:38:28.307Z,25.87
2017-09-29T18:43:33.659Z,15.80
2017-09-29T18:48:36.308Z,20.63
2017-09-29T18:53:39.662Z,22.57
2017-09-29T18:58:42.267Z,24.63
2017-09-29T19:03:45.631Z,24.93
2017-09-29T19:08:48.972Z,29.73
2017-09-29T19:13:51.545Z,35.70
2017-09-29T19:18:54.241Z,41.37
2017-09-29T19:23:56.835Z,32.03
2017-09-29T19:28:59.394Z,16.90
2017-09-29T19:34:02.022Z,24.00
2017-09-29T19:39:04.625Z,33.37
2017-09-29T19:44:07.199Z,26.03
2017-09-29T19:49:09.828Z,27.00
2017-09-29T19:54:12.379Z,23.90
2017-09-29T19:59:14.943Z,21.57
2017-09-29T20:04:18.278Z,21.43
2017-09-29T20:09:21.088Z,20.30
2017-09-29T20:14:23.656Z,23.37
2017-09-29T20:19:26.218Z,23.23
2017-09-29T20:24:28.792Z,25.17
2017-09-29T20:29:31.369Z,23.03
2017-09-29T20:34:34.691Z,21.93
2017-09-29T20:39:37.268Z,22.50
2017-09-29T20:44:39.843Z,27.07
2017-09-29T20:49:42.431Z,30.10
2017-09-29T20:54:44.996Z,22.10
2017-09-29T20:59:47.538Z,21.80
2017-09-29T21:04:50.103Z,25.60
2017-09-29T21:09:52.674Z,21.07
2017-09-29T21:14:56.006Z,22.23
2017-09-29T21:19:58.564Z,24.33
2017-09-29T21:25:01.640Z,20.63
2017-09-29T21:30:05.006Z,29.40
2017-09-29T21:35:07.558Z,29.63
2017-09-29T21:40:10.166Z,22.53
2017-09-29T21:45:12.788Z,22.40
2017-09-29T21:50:15.353Z,18.93
2017-09-29T21:55:17.907Z,26.70
2017-09-29T22:00:20.470Z,25.63
2017-09-29T22:05:23.037Z,25.20
2017-09-29T22:10:25.607Z,24.30
2017-09-29T22:15:28.158Z,33.00
2017-09-29T22:20:30.705Z,22.83
2017-09-29T22:25:33.278Z,26.87
2017-09-29T22:30:35.835Z,22.00
2017-09-29T22:35:38.388Z,27.63
2017-09-29T22:40:40.950Z,22.50
2017-09-29T22:45:43.514Z,32.33
2017-09-29T22:50:46.161Z,24.53
2017-09-29T22:55:48.735Z,26.83
2017-09-29T23:00:51.294Z,26.40
2017-09-29T23:05:53.851Z,32.30
2017-09-29T23:10:56.401Z,26.60
2017-09-29T23:15:58.975Z,39.57
2017-09-29T23:21:01.558Z,29.10
2017-09-29T23:26:04.125Z,36.77
2017-09-29T23:31:06.698Z,29.80
2017-09-29T23:36:09.252Z,38.37
2017-09-29T23:41:11.851Z,28.50
2017-09-29T23:46:14.418Z,34.10
2017-09-29T23:51:16.962Z,30.47
2017-09-29T23:56:19.510Z,29.97
